createdAt,value
2023-04-02T00:07:05.507Z,3.4
2023-04-02T02:43:03.004Z,5.1
2023-04-02T02:48:58.910Z,4.4
2023-04-02T02:54:56.786Z,12.6
2023-04-02T03:01:01.307Z,5.5
2023-04-02T03:06:53.628Z,5.9
2023-04-02T03:12:46.040Z,4.9
2023-04-02T03:18:51.706Z,5.6
2023-04-02T03:24:43.204Z,8.5
2023-04-02T03:30:40.034Z,6.2
2023-04-02T03:36:32.783Z,6.2
2023-04-02T03:42:27.145Z,5.9
2023-04-02T03:48:33.084Z,11.6
2023-04-02T03:54:32.174Z,13
2023-04-02T04:00:50.322Z,10.5
2023-04-02T04:06:42.502Z,11.8
2023-04-02T04:12:36.578Z,10.3
2023-04-02T04:18:35.272Z,12.2
2023-04-02T04:24:34.448Z,12.6
2023-04-02T04:30:42.232Z,15.3
2023-04-02T04:36:35.934Z,18.5
2023-04-02T04:42:30.258Z,20.2
2023-04-02T04:48:22.998Z,18.9
2023-04-02T05:00:25.578Z,15.6
2023-04-02T05:06:23.165Z,12.1
2023-04-02T05:12:22.155Z,10.4
2023-04-02T05:18:15.448Z,9.2
2023-04-02T05:24:09.443Z,7.4
2023-04-02T05:30:15.166Z,9.5
2023-04-02T05:36:13.985Z,13.2
2023-04-02T05:42:08.059Z,12.5
2023-04-02T05:48:13.128Z,13.6
2023-04-02T05:54:13.448Z,10.9
2023-04-02T06:00:06.689Z,7.1
2023-04-02T06:06:02.816Z,7.4
2023-04-02T06:11:54.821Z,9.3
2023-04-02T06:17:48.884Z,11.4
2023-04-02T06:23:41.089Z,12.1
2023-04-02T06:29:33.791Z,14.1
2023-04-02T06:35:27.752Z,14.5
2023-04-02T06:41:22.475Z,12.9
2023-04-02T06:47:15.894Z,11.4
2023-04-02T06:53:11.821Z,8
2023-04-02T06:59:04.508Z,6.5
2023-04-02T07:04:59.437Z,7.7
2023-04-02T07:10:52.765Z,7.6
2023-04-02T07:16:49.122Z,7.3
2023-04-02T07:22:45.892Z,7.2
2023-04-02T07:28:38.215Z,6.6
2023-04-02T07:34:30.886Z,7.5
2023-04-02T07:40:23.243Z,11.3
2023-04-02T07:46:19.784Z,7.5
2023-04-02T07:52:14.293Z,9.3
2023-04-02T07:58:06.954Z,8.8
2023-04-02T08:04:02.373Z,8.6
2023-04-02T08:09:55.671Z,8.1
2023-04-02T08:15:49.343Z,9.3
2023-04-02T08:21:44.123Z,9.2
2023-04-02T08:27:35.921Z,9.7
2023-04-02T08:33:28.376Z,11.5
2023-04-02T08:39:21.553Z,9.5
2023-04-02T08:45:29.437Z,11.1
2023-04-02T08:51:20.812Z,11.3
2023-04-02T08:57:14.130Z,8.8
2023-04-02T09:03:08.003Z,10
2023-04-02T09:09:02.339Z,11.6
2023-04-02T09:14:54.307Z,11.4
2023-04-02T09:20:47.132Z,8.7
2023-04-02T09:26:39.412Z,8.1
2023-04-02T09:32:30.202Z,17.3
2023-04-02T09:38:22.080Z,20.5
2023-04-02T09:44:14.859Z,5.9
2023-04-02T09:50:07.529Z,3.6
2023-04-02T09:56:02.753Z,4.2
2023-04-02T10:01:54.938Z,8.1
2023-04-02T10:07:47.553Z,2.7
2023-04-02T10:13:39.323Z,3.2
2023-04-02T10:19:32.868Z,2.7
2023-04-02T10:25:25.440Z,4.5
2023-04-02T10:31:18.134Z,5.2
2023-04-02T10:37:11.012Z,4.5
2023-04-02T10:43:04.812Z,8.6
2023-04-02T10:49:01.940Z,6.3
2023-04-02T10:54:56.712Z,6.5
2023-04-02T11:00:50.011Z,5.5
2023-04-02T11:06:42.988Z,6.4
2023-04-02T11:12:41.970Z,6.7
2023-04-02T11:18:41.769Z,5.9
2023-04-02T11:24:33.279Z,7.1
2023-04-02T11:30:29.350Z,5.9
2023-04-02T11:36:22.045Z,5.8
2023-04-02T11:42:20.917Z,3.9
2023-04-02T11:48:20.755Z,4.3
2023-04-02T11:54:13.147Z,5.9
2023-04-02T12:00:07.175Z,6
2023-04-02T12:06:00.478Z,4.7
2023-04-02T12:11:56.675Z,4.3
2023-04-02T12:17:51.237Z,4.9
2023-04-02T12:23:49.321Z,6.7
2023-04-02T12:29:42.793Z,4.4
2023-04-02T12:35:35.334Z,4.6
2023-04-02T12:41:27.514Z,4.1
2023-04-02T12:47:17.840Z,4.5
2023-04-02T12:53:10.356Z,4.1
2023-04-02T12:59:03.006Z,4.7
2023-04-02T13:04:57.599Z,4.9
2023-04-02T13:10:49.895Z,4.9
2023-04-02T13:16:42.851Z,5.3
2023-04-02T13:22:34.448Z,4.5
2023-04-02T13:28:27.772Z,6.2
2023-04-02T13:34:21.514Z,4.7
2023-04-02T13:40:14.821Z,4.2
2023-04-02T13:46:09.340Z,4.5
2023-04-02T13:52:02.210Z,4.6
2023-04-02T13:57:58.917Z,4.4
2023-04-02T14:03:50.871Z,4.4
2023-04-02T14:09:42.503Z,5.4
2023-04-02T14:15:35.156Z,4.4
2023-04-02T14:21:27.939Z,4.6
2023-04-02T14:27:23.718Z,3.3
2023-04-02T14:33:26.657Z,4
2023-04-02T14:39:23.417Z,4.2
2023-04-02T14:45:17.175Z,2.8
2023-04-02T14:51:12.113Z,4.1
2023-04-02T14:57:05.699Z,3.4
2023-04-02T15:02:58.844Z,3.5
2023-04-02T15:09:13.241Z,5.3
2023-04-02T15:15:06.613Z,6.2
2023-04-02T15:21:01.051Z,7.6
2023-04-02T15:26:56.538Z,9.1
2023-04-02T15:32:54.761Z,9.1
2023-04-02T15:38:48.134Z,6
2023-04-02T15:44:39.427Z,6.1
2023-04-02T15:50:38.140Z,6.6
2023-04-02T15:56:38.691Z,5.6
2023-04-02T16:02:32.581Z,5.3
2023-04-02T16:08:26.800Z,4.3
2023-04-02T16:14:22.097Z,26.3
2023-04-02T16:20:16.659Z,5.1
2023-04-02T16:26:12.160Z,4.8
2023-04-02T16:32:23.094Z,3.1
2023-04-02T16:38:18.257Z,4.3
2023-04-02T16:44:14.559Z,4.3
2023-04-02T16:50:06.908Z,4.3
2023-04-02T16:55:59.442Z,3.3
2023-04-02T17:01:58.345Z,4.6
2023-04-02T17:07:51.388Z,4.5
2023-04-02T17:13:44.065Z,3.6
2023-04-02T17:19:37.251Z,5.2
2023-04-02T17:25:29.644Z,5.7
2023-04-02T17:31:26.068Z,4.5
2023-04-02T17:37:20.805Z,6.5
2023-04-02T17:43:22.166Z,4.6
2023-04-02T17:55:40.745Z,3.8
2023-04-02T18:07:41.643Z,3.1
2023-04-02T18:13:34.067Z,5.4
2023-04-02T18:19:46.407Z,3.2
2023-04-02T18:26:04.794Z,5.2
2023-04-02T18:31:59.104Z,4.6
2023-04-02T18:38:13.808Z,3.1
2023-04-02T18:44:04.374Z,4.2
2023-04-02T18:55:51.487Z,4.1
2023-04-02T19:01:57.751Z,4.5
2023-04-02T19:07:57.505Z,4.6
2023-04-02T19:20:05.043Z,3.9
2023-04-02T19:26:02.114Z,5.4
2023-04-02T19:38:34.405Z,3.6
2023-04-02T19:44:30.762Z,5.2
2023-04-02T20:02:54.677Z,4.4
2023-04-02T20:09:02.900Z,4.9
2023-04-02T20:14:54.020Z,4
2023-04-02T20:20:55.081Z,5.6
2023-04-02T20:26:56.752Z,3.8
2023-04-02T20:32:49.730Z,4.7
2023-04-02T20:38:50.009Z,4.8
2023-04-02T20:44:57.457Z,4.8
2023-04-02T21:03:51.096Z,3.9
2023-04-02T21:10:06.690Z,4.6
2023-04-02T21:16:31.628Z,5.1
2023-04-02T21:22:40.173Z,4.7
2023-04-02T21:47:41.471Z,5.6
2023-04-02T21:53:48.095Z,4.6
2023-04-02T22:06:19.777Z,5.9
2023-04-02T22:19:39.102Z,5.2
2023-04-02T22:32:47.438Z,3.6
2023-04-02T22:38:44.373Z,5
2023-04-02T22:45:20.020Z,5.5
2023-04-02T22:58:07.666Z,5.8
2023-04-02T23:04:42.374Z,5.9
2023-04-02T23:24:07.811Z,7
2023-04-02T23:48:32.145Z,6.1
